createdAt,value
2018-11-14T07:36:46.628Z,80.37
2018-11-14T07:39:14.917Z,76.87
2018-11-14T07:41:43.163Z,75.33
2018-11-14T07:44:11.404Z,76.37
2018-11-14T07:46:39.636Z,91.27
2018-11-14T07:49:07.948Z,78.17
2018-11-14T07:51:36.113Z,65.93
2018-11-14T07:54:04.357Z,69.80
2018-11-14T07:56:35.788Z,72.20
2018-11-14T07:59:04.022Z,66.70
2018-11-14T08:01:32.244Z,69.07
2018-11-14T08:04:00.497Z,65.77
2018-11-14T08:06:28.728Z,69.80
2018-11-14T08:08:56.957Z,75.90
2018-11-14T08:11:25.213Z,77.93
2018-11-14T08:13:53.430Z,74.80
2018-11-14T08:16:21.675Z,77.70
2018-11-14T08:18:49.978Z,74.03
2018-11-14T08:21:18.153Z,89.13
2018-11-14T08:23:46.385Z,64.27
2018-11-14T08:26:14.627Z,69.77
2018-11-14T08:28:42.840Z,65.47
2018-11-14T08:31:11.089Z,61.60
2018-11-14T08:33:39.325Z,65.83
2018-11-14T08:36:07.610Z,52.23
2018-11-14T08:38:35.848Z,66.53
2018-11-14T08:41:04.131Z,50.77
2018-11-14T08:43:32.392Z,63.90
2018-11-14T08:46:00.646Z,54.87
2018-11-14T08:48:28.917Z,43.00
2018-11-14T08:50:57.160Z,57.90
2018-11-14T08:53:25.397Z,41.27
2018-11-14T08:55:53.637Z,64.57
2018-11-14T08:58:21.867Z,48.57
2018-11-14T09:00:50.116Z,39.67
2018-11-14T09:03:18.342Z,47.17
2018-11-14T09:05:46.591Z,49.70
2018-11-14T09:08:14.824Z,48.37
2018-11-14T09:10:43.064Z,45.20
2018-11-14T09:13:13.066Z,40.47
2018-11-14T09:15:41.442Z,38.77
2018-11-14T09:18:16.590Z,46.23
2018-11-14T09:20:44.772Z,32.17
2018-11-14T09:23:13.004Z,33.73
2018-11-14T09:25:41.248Z,43.17
2018-11-14T09:28:09.473Z,35.57
2018-11-14T09:30:37.720Z,44.70
2018-11-14T09:33:06.312Z,35.50
2018-11-14T09:35:34.560Z,46.23
2018-11-14T09:38:02.778Z,42.00
2018-11-14T09:40:31.244Z,39.90
2018-11-14T09:42:59.482Z,40.87
2018-11-14T09:45:28.889Z,37.17
2018-11-14T09:47:57.143Z,32.20
2018-11-14T09:50:27.524Z,38.73
2018-11-14T09:52:59.007Z,32.63
2018-11-14T09:55:27.213Z,30.87
2018-11-14T09:57:55.476Z,35.97
2018-11-14T10:00:26.756Z,40.77
2018-11-14T10:02:57.650Z,39.97
2018-11-14T10:05:26.089Z,32.93
2018-11-14T10:07:54.388Z,38.23
2018-11-14T10:10:23.091Z,36.17
2018-11-14T10:12:51.340Z,35.30
2018-11-14T10:15:20.679Z,26.80
2018-11-14T10:17:49.220Z,28.13
2018-11-14T10:20:18.684Z,28.40
2018-11-14T10:22:46.987Z,41.93
2018-11-14T10:25:15.772Z,41.73
2018-11-14T10:27:44.555Z,26.23
2018-11-14T10:30:14.999Z,31.83
2018-11-14T10:32:43.942Z,32.17
2018-11-14T10:35:12.345Z,28.10
2018-11-14T10:37:40.909Z,25.60
2018-11-14T10:40:11.912Z,29.63
2018-11-14T10:42:40.339Z,24.00
2018-11-14T10:45:09.758Z,32.20
2018-11-14T10:47:38.022Z,21.80
2018-11-14T10:50:08.220Z,26.27
2018-11-14T10:52:36.556Z,33.37
2018-11-14T10:55:05.372Z,28.03
2018-11-14T10:57:33.630Z,23.13
2018-11-14T11:00:01.879Z,26.10
2018-11-14T11:02:35.564Z,23.57
2018-11-14T11:05:09.036Z,25.00
2018-11-14T11:07:42.536Z,35.00
2018-11-14T11:10:16.195Z,19.83
2018-11-14T11:14:54.640Z,27.70
2018-11-14T11:17:32.099Z,21.83
2018-11-14T11:20:00.349Z,19.60
2018-11-14T11:22:28.596Z,21.43
2018-11-14T11:24:56.824Z,27.20
2018-11-14T11:27:25.065Z,21.53
2018-11-14T11:29:53.609Z,19.90
2018-11-14T11:32:21.860Z,22.90
2018-11-14T11:34:50.101Z,29.97
2018-11-14T11:37:18.368Z,21.43
2018-11-14T11:39:46.597Z,17.73
2018-11-14T11:42:14.833Z,16.30
2018-11-14T11:44:43.081Z,15.70
2018-11-14T11:47:11.325Z,16.93
2018-11-14T11:49:39.585Z,25.07
2018-11-14T11:52:07.831Z,23.83
2018-11-14T11:54:36.089Z,21.30
2018-11-14T11:57:04.332Z,21.53
2018-11-14T11:59:32.651Z,19.43
2018-11-14T12:02:00.832Z,22.83
2018-11-14T12:04:29.071Z,17.03
2018-11-14T12:06:57.288Z,20.53
2018-11-14T12:09:25.539Z,11.93
2018-11-14T12:11:53.763Z,14.23
2018-11-14T12:14:22.010Z,16.13
2018-11-14T12:16:50.260Z,15.70
2018-11-14T12:19:18.584Z,19.23
2018-11-14T12:21:46.781Z,19.43
2018-11-14T12:24:15.021Z,15.83
2018-11-14T12:26:43.260Z,15.67
2018-11-14T12:29:11.506Z,15.90
2018-11-14T12:31:39.721Z,17.67
2018-11-14T12:34:07.961Z,17.00
2018-11-14T12:36:36.253Z,28.77
2018-11-14T12:39:06.594Z,16.37
2018-11-14T12:41:34.851Z,13.23
2018-11-14T12:44:03.112Z,17.27
2018-11-14T12:46:31.341Z,23.30
2018-11-14T12:48:59.586Z,13.10
2018-11-14T12:51:27.806Z,21.13
2018-11-14T12:53:56.052Z,17.90
2018-11-14T12:56:24.300Z,18.80
2018-11-14T12:58:52.548Z,17.60
2018-11-14T13:01:20.804Z,17.27
2018-11-14T13:03:49.051Z,18.00
2018-11-14T13:06:17.275Z,19.27
2018-11-14T13:08:45.505Z,20.83
2018-11-14T13:11:13.766Z,20.53
2018-11-14T13:13:47.164Z,24.27
2018-11-14T13:16:16.180Z,17.03
2018-11-14T13:18:44.629Z,16.10
2018-11-14T13:21:13.092Z,15.90
2018-11-14T13:23:41.429Z,13.53
2018-11-14T13:26:10.104Z,22.70
2018-11-14T13:28:38.744Z,18.50
2018-11-14T13:31:07.156Z,18.93
2018-11-14T13:33:35.621Z,18.97
2018-11-14T13:36:03.880Z,17.60
2018-11-14T13:38:32.103Z,13.73
2018-11-14T13:41:00.349Z,17.80
2018-11-14T13:43:28.592Z,27.20
2018-11-14T13:45:56.829Z,13.37
2018-11-14T13:48:25.101Z,23.03
2018-11-14T13:50:53.492Z,23.23
2018-11-14T13:53:21.605Z,22.63
2018-11-14T13:55:49.844Z,17.30
2018-11-14T13:58:18.069Z,15.20
2018-11-14T14:00:46.315Z,16.90
2018-11-14T14:03:14.529Z,15.20
2018-11-14T14:05:42.780Z,17.07
2018-11-14T14:08:11.042Z,18.33
2018-11-14T14:10:39.269Z,12.63
2018-11-14T14:13:07.504Z,17.20
2018-11-14T14:15:35.745Z,14.53
2018-11-14T14:18:03.956Z,17.37
2018-11-14T14:20:32.197Z,17.70
2018-11-14T14:23:00.416Z,16.77
2018-11-14T14:25:28.653Z,18.23
2018-11-14T14:27:56.860Z,19.17
2018-11-14T14:30:25.097Z,13.13
2018-11-14T14:32:53.304Z,16.47
2018-11-14T14:35:22.422Z,13.90
2018-11-14T14:37:50.681Z,14.37
2018-11-14T14:40:20.037Z,18.57
2018-11-14T14:42:48.350Z,21.53
2018-11-14T14:45:19.028Z,16.57
2018-11-14T14:47:47.273Z,14.23
2018-11-14T14:50:16.694Z,9.73
2018-11-14T14:52:45.225Z,16.90
2018-11-14T14:55:15.746Z,11.73
2018-11-14T14:57:44.740Z,14.37
2018-11-14T15:00:19.977Z,16.03
2018-11-14T15:02:48.196Z,11.73
2018-11-14T15:05:16.425Z,10.43
2018-11-14T15:07:44.648Z,12.30
2018-11-14T15:10:14.537Z,12.73
2018-11-14T15:12:42.850Z,10.27
2018-11-14T15:15:11.460Z,10.43
2018-11-14T15:17:39.693Z,12.00
2018-11-14T15:20:13.561Z,17.57
2018-11-14T15:22:42.106Z,17.67
2018-11-14T15:25:11.957Z,15.70
2018-11-14T15:27:40.938Z,13.30
2018-11-14T15:30:12.024Z,17.23
2018-11-14T15:32:40.648Z,8.80
2018-11-14T15:35:09.731Z,17.57
2018-11-14T15:37:38.128Z,21.50
2018-11-14T15:40:07.440Z,15.20
2018-11-14T15:42:36.403Z,15.73
2018-11-14T15:45:05.193Z,12.40
2018-11-14T15:47:33.426Z,11.87
2018-11-14T15:50:01.656Z,19.30
2018-11-14T15:52:29.908Z,15.50
2018-11-14T15:54:58.133Z,13.47
2018-11-14T15:57:26.380Z,19.33
2018-11-14T15:59:54.604Z,36.30
2018-11-14T16:02:22.878Z,21.33
2018-11-14T16:04:51.109Z,25.57
2018-11-14T16:07:19.364Z,16.70
2018-11-14T16:09:47.593Z,21.00
2018-11-14T16:12:15.876Z,17.30
2018-11-14T16:14:44.085Z,26.03
2018-11-14T16:17:12.333Z,17.53
2018-11-14T16:19:40.556Z,16.50
2018-11-14T16:22:08.808Z,21.70
2018-11-14T16:24:37.091Z,14.73
2018-11-14T16:27:05.649Z,15.80
2018-11-14T16:29:33.884Z,14.20
2018-11-14T16:32:02.165Z,10.50
2018-11-14T16:34:30.406Z,17.23
2018-11-14T16:36:58.679Z,20.10
2018-11-14T16:39:26.904Z,12.47
2018-11-14T16:41:55.155Z,19.37
2018-11-14T16:44:23.441Z,19.37
2018-11-14T16:46:51.646Z,18.73
2018-11-14T16:49:19.887Z,21.07
2018-11-14T16:51:48.105Z,19.43
2018-11-14T16:54:16.341Z,18.93
2018-11-14T16:56:44.568Z,13.23
2018-11-14T16:59:12.800Z,19.73
2018-11-14T17:01:41.022Z,17.57
2018-11-14T17:04:09.264Z,16.17
2018-11-14T17:06:37.494Z,14.47
2018-11-14T17:09:08.545Z,23.57
2018-11-14T17:11:36.788Z,18.40
2018-11-14T17:14:05.197Z,22.37
2018-11-14T17:16:33.427Z,19.83
2018-11-14T17:19:02.229Z,16.80
2018-11-14T17:21:30.460Z,18.20
2018-11-14T17:23:58.719Z,19.53
2018-11-14T17:26:26.956Z,24.43
2018-11-14T17:28:55.188Z,26.33
2018-11-14T17:31:23.440Z,20.87
2018-11-14T17:33:51.658Z,22.40
2018-11-14T17:36:19.892Z,24.60
2018-11-14T17:38:48.129Z,18.67
2018-11-14T17:41:16.378Z,22.03
2018-11-14T17:43:44.983Z,17.53
2018-11-14T17:46:13.239Z,17.67
2018-11-14T17:48:41.471Z,15.63
2018-11-14T17:51:09.707Z,25.20
2018-11-14T17:53:37.936Z,20.63
2018-11-14T17:56:06.187Z,20.67
2018-11-14T17:58:34.409Z,18.93
2018-11-14T18:01:02.741Z,18.17
2018-11-14T18:03:30.939Z,19.40
2018-11-14T18:05:59.183Z,16.97
2018-11-14T18:08:27.396Z,17.40
2018-11-14T18:10:55.660Z,19.07
2018-11-14T18:13:23.875Z,16.50
2018-11-14T18:15:52.111Z,20.50
2018-11-14T18:18:20.348Z,16.97
2018-11-14T18:20:48.563Z,15.73
2018-11-14T18:23:16.801Z,24.77
2018-11-14T18:25:45.028Z,19.73
2018-11-14T18:28:13.278Z,32.07
2018-11-14T18:30:41.602Z,17.57
2018-11-14T18:33:09.777Z,20.00
2018-11-14T18:35:38.009Z,19.97
2018-11-14T18:38:06.253Z,19.10
2018-11-14T18:40:35.240Z,26.20
2018-11-14T18:43:03.506Z,21.47
2018-11-14T18:45:33.758Z,24.47
2018-11-14T18:48:02.624Z,22.60
2018-11-14T18:50:30.908Z,23.13
2018-11-14T18:52:59.165Z,30.03
2018-11-14T18:55:28.768Z,19.00
2018-11-14T18:57:57.488Z,21.73
2018-11-14T19:00:26.877Z,26.33
2018-11-14T19:02:55.100Z,23.63
2018-11-14T19:05:23.340Z,20.60
2018-11-14T19:07:51.576Z,18.60
2018-11-14T19:10:21.328Z,15.03
2018-11-14T19:12:50.258Z,21.00
2018-11-14T19:15:19.878Z,23.77
2018-11-14T19:17:48.103Z,19.60
2018-11-14T19:20:18.428Z,20.67
2018-11-14T19:22:46.736Z,16.13
2018-11-14T19:25:16.432Z,19.50
2018-11-14T19:27:45.450Z,24.00
2018-11-14T19:30:14.881Z,20.53
2018-11-14T19:32:44.092Z,25.97
2018-11-14T19:35:12.906Z,25.23
2018-11-14T19:37:42.388Z,28.50
2018-11-14T19:40:13.528Z,28.77
2018-11-14T19:42:42.249Z,26.63
2018-11-14T19:45:12.989Z,21.87
2018-11-14T19:47:41.839Z,25.13
2018-11-14T19:50:11.729Z,16.77
2018-11-14T19:52:40.204Z,19.73
2018-11-14T19:55:09.722Z,23.73
2018-11-14T19:57:37.951Z,19.07
2018-11-14T20:00:10.528Z,16.20
2018-11-14T20:02:38.760Z,21.93
2018-11-14T20:05:07.876Z,22.13
2018-11-14T20:07:36.536Z,20.00
2018-11-14T20:10:05.743Z,17.43
2018-11-14T20:12:33.996Z,18.20
2018-11-14T20:15:02.247Z,22.43
2018-11-14T20:17:30.499Z,18.63
2018-11-14T20:19:58.744Z,16.63
2018-11-14T20:22:26.984Z,19.43
2018-11-14T20:24:55.221Z,25.20
2018-11-14T20:27:23.473Z,25.23
2018-11-14T20:29:51.701Z,13.60
2018-11-14T20:32:19.948Z,17.43
2018-11-14T20:34:48.193Z,22.63
2018-11-14T20:37:16.467Z,23.93
2018-11-14T20:39:44.696Z,19.93
2018-11-14T20:42:12.999Z,22.07
2018-11-14T20:44:41.235Z,21.37
2018-11-14T20:47:09.480Z,14.57
2018-11-14T20:49:37.696Z,23.73
2018-11-14T20:52:05.942Z,18.33
2018-11-14T20:54:34.179Z,19.03
2018-11-14T20:57:02.422Z,23.07
2018-11-14T20:59:30.661Z,16.97
2018-11-14T21:01:58.909Z,25.77
2018-11-14T21:04:27.123Z,23.20
2018-11-14T21:06:55.395Z,22.57
2018-11-14T21:09:23.608Z,22.80
2018-11-14T21:11:51.849Z,21.27
2018-11-14T21:14:20.088Z,19.67
